Time;durP1;ratioP1;P1;durP2;ratioP2;P2;SDS_P1;SDS_P2;PMS_P1;PMS_P2;Temp;Humidity;BMP_temperature;BMP_pressure;BME280_temperature;BME280_humidity;BME280_pressure;Samples;Min_cycle;Max_cycle;Signal;HPM_P1;HPM_P2
2023/06/18 00:02:00;;;;;;;7.28;6.00;;;;;;;;;;4361907;32;20432;-72
2023/06/18 00:04:25;;;;;;;10.73;6.10;;;;;;;;;;4374062;32;20080;-72
2023/06/18 00:06:51;;;;;;;11.15;5.65;;;;;;;;;;4374693;32;20039;-72
2023/06/18 00:09:16;;;;;;;8.63;5.95;;;;;;;;;;4375732;32;20407;-72
2023/06/18 00:11:41;;;;;;;7.40;5.63;;;;;;;;;;4375555;32;20077;-72
2023/06/18 00:14:06;;;;;;;11.53;5.67;;;;;;;;;;4375903;32;20206;-72
2023/06/18 00:16:31;;;;;;;8.85;5.47;;;;;;;;;;4376012;32;20475;-72
2023/06/18 00:18:57;;;;;;;7.90;6.13;;;;;;;;;;4374925;32;20043;-71
2023/06/18 00:21:22;;;;;;;8.37;5.70;;;;;;;;;;4360757;32;20135;-72
2023/06/18 00:23:47;;;;;;;10.97;6.53;;;;;;;;;;4374465;32;20529;-72
2023/06/18 00:26:12;;;;;;;7.68;5.65;;;;;;;;;;4375019;32;20581;-72
2023/06/18 00:28:37;;;;;;;6.80;6.10;;;;;;;;;;4362632;32;20092;-72
2023/06/18 00:31:02;;;;;;;8.85;6.53;;;;;;;;;;4376819;32;20157;-72
2023/06/18 00:33:28;;;;;;;8.40;6.13;;;;;;;;;;4373100;32;20098;-73
2023/06/18 00:35:57;;;;;;;7.93;5.95;;;;;;;;;;4359584;32;20119;-72
2023/06/18 00:38:33;;;;;;;8.85;6.20;;;;;;;;;;4361066;32;20119;-72
2023/06/18 00:40:58;;;;;;;6.90;5.35;;;;;;;;;;4362214;32;20363;-71
2023/06/18 00:43:23;;;;;;;7.37;4.80;;;;;;;;;;4374734;32;20022;-73
2023/06/18 00:45:48;;;;;;;11.73;6.47;;;;;;;;;;4374514;32;20067;-73
2023/06/18 00:48:14;;;;;;;8.48;6.40;;;;;;;;;;4360434;32;20147;-72
2023/06/18 00:50:42;;;;;;;13.15;7.00;;;;;;;;;;4373980;32;20082;-72
2023/06/18 00:53:08;;;;;;;9.00;6.20;;;;;;;;;;4373866;32;20085;-72
2023/06/18 00:55:36;;;;;;;8.73;6.15;;;;;;;;;;4376361;32;20039;-72
2023/06/18 00:58:03;;;;;;;11.55;6.18;;;;;;;;;;4376046;32;20379;-73
2023/06/18 01:00:28;;;;;;;8.57;6.03;;;;;;;;;;4374830;32;20326;-72
2023/06/18 01:02:55;;;;;;;11.05;6.60;;;;;;;;;;4362723;32;20031;-72
2023/06/18 01:05:21;;;;;;;13.75;6.43;;;;;;;;;;4374658;32;20031;-72
2023/06/18 01:07:49;;;;;;;10.48;6.22;;;;;;;;;;4359605;32;20108;-71
2023/06/18 01:10:15;;;;;;;8.52;6.75;;;;;;;;;;4360691;32;20309;-71
2023/06/18 01:12:42;;;;;;;9.00;6.07;;;;;;;;;;4362114;32;20089;-71
2023/06/18 01:15:10;;;;;;;8.23;6.87;;;;;;;;;;4362286;32;20329;-71
2023/06/18 01:17:35;;;;;;;10.80;6.47;;;;;;;;;;4375769;32;20047;-71
2023/06/18 01:20:04;;;;;;;14.75;6.53;;;;;;;;;;4358908;32;20069;-73
2023/06/18 01:22:37;;;;;;;8.20;6.32;;;;;;;;;;4353816;32;21912;-73
2023/06/18 01:25:03;;;;;;;8.63;7.07;;;;;;;;;;4369261;32;20094;-73
2023/06/18 01:27:33;;;;;;;13.62;7.55;;;;;;;;;;4354360;32;20023;-72
2023/06/18 01:29:59;;;;;;;10.05;7.40;;;;;;;;;;4357039;32;20047;-73
2023/06/18 01:32:24;;;;;;;10.85;6.70;;;;;;;;;;4362134;32;20072;-72
2023/06/18 01:34:53;;;;;;;10.35;7.20;;;;;;;;;;4363739;32;20026;-71
2023/06/18 01:37:24;;;;;;;14.40;8.00;;;;;;;;;;4376264;32;20043;-71
2023/06/18 01:39:54;;;;;;;10.38;7.82;;;;;;;;;;4370343;32;20451;-73
2023/06/18 01:42:20;;;;;;;9.00;7.53;;;;;;;;;;4363985;32;20560;-71
2023/06/18 01:44:55;;;;;;;12.65;8.30;;;;;;;;;;4364537;32;20027;-71
2023/06/18 01:47:21;;;;;;;8.98;7.50;;;;;;;;;;4364709;32;20043;-71
2023/06/18 01:49:47;;;;;;;9.07;7.15;;;;;;;;;;4364819;32;20081;-72
2023/06/18 01:52:15;;;;;;;10.32;7.85;;;;;;;;;;4365544;32;20425;-72
2023/06/18 01:54:42;;;;;;;11.02;7.25;;;;;;;;;;4363782;32;20069;-73
2023/06/18 01:57:08;;;;;;;10.35;7.80;;;;;;;;;;4365604;32;20035;-72
2023/06/18 01:59:33;;;;;;;9.00;7.28;;;;;;;;;;4363937;32;20417;-72
2023/06/18 02:01:58;;;;;;;13.10;7.30;;;;;;;;;;4370504;32;20412;-71
2023/06/18 02:04:24;;;;;;;14.20;7.75;;;;;;;;;;4379239;32;20119;-72
2023/06/18 02:06:49;;;;;;;11.10;8.00;;;;;;;;;;4365706;32;20504;-72
2023/06/18 02:09:15;;;;;;;17.50;8.25;;;;;;;;;;4379150;32;20027;-72
2023/06/18 02:11:40;;;;;;;14.73;8.82;;;;;;;;;;4366093;32;20035;-72
2023/06/18 02:14:05;;;;;;;9.15;6.72;;;;;;;;;;4366537;32;20057;-72
2023/06/18 02:16:30;;;;;;;10.47;8.43;;;;;;;;;;4363554;32;20494;-73
2023/06/18 02:18:55;;;;;;;11.98;7.55;;;;;;;;;;4363144;32;20131;-70
2023/06/18 02:21:20;;;;;;;11.23;8.32;;;;;;;;;;4379257;32;20039;-71
2023/06/18 02:23:46;;;;;;;9.53;7.30;;;;;;;;;;4379683;32;20034;-72
2023/06/18 02:26:13;;;;;;;10.43;8.18;;;;;;;;;;4380113;32;20503;-72
2023/06/18 02:28:38;;;;;;;14.13;8.70;;;;;;;;;;4365753;32;20061;-71
2023/06/18 02:31:05;;;;;;;10.27;8.45;;;;;;;;;;4378379;32;20039;-70
2023/06/18 02:33:30;;;;;;;12.20;9.13;;;;;;;;;;4378518;32;20042;-72
2023/06/18 02:35:55;;;;;;;14.40;8.53;;;;;;;;;;4379673;32;20053;-71
2023/06/18 02:38:21;;;;;;;11.73;9.05;;;;;;;;;;4378370;32;20460;-71
2023/06/18 02:40:46;;;;;;;12.23;8.40;;;;;;;;;;4365165;32;20470;-71
2023/06/18 02:43:12;;;;;;;11.57;8.40;;;;;;;;;;4378158;32;20119;-70
2023/06/18 02:45:38;;;;;;;13.00;9.38;;;;;;;;;;4375851;32;20273;-70
2023/06/18 02:48:03;;;;;;;14.60;9.05;;;;;;;;;;4375590;32;20039;-71
2023/06/18 02:50:28;;;;;;;14.15;9.90;;;;;;;;;;4362785;32;20244;-71
2023/06/18 02:52:55;;;;;;;12.63;9.80;;;;;;;;;;4363462;32;20060;-72
2023/06/18 02:55:20;;;;;;;11.70;8.60;;;;;;;;;;4377308;32;20137;-72
2023/06/18 02:57:45;;;;;;;16.33;10.68;;;;;;;;;;4361965;32;20530;-72
2023/06/18 03:00:12;;;;;;;15.80;10.45;;;;;;;;;;4362328;32;20031;-71
2023/06/18 03:02:37;;;;;;;14.80;10.02;;;;;;;;;;4364105;32;20039;-70
2023/06/18 03:05:03;;;;;;;15.18;9.90;;;;;;;;;;4361998;32;20455;-71
2023/06/18 03:07:28;;;;;;;12.98;10.00;;;;;;;;;;4375689;32;20081;-72
2023/06/18 03:09:54;;;;;;;16.87;10.43;;;;;;;;;;4375937;32;20031;-71
2023/06/18 03:12:19;;;;;;;14.15;10.95;;;;;;;;;;4376834;32;20180;-71
2023/06/18 03:14:44;;;;;;;16.30;10.55;;;;;;;;;;4377237;32;20081;-72
2023/06/18 03:17:09;;;;;;;14.98;11.20;;;;;;;;;;4376075;32;20424;-72
2023/06/18 03:19:35;;;;;;;16.37;11.77;;;;;;;;;;4375540;32;20433;-71
2023/06/18 03:22:00;;;;;;;14.82;11.10;;;;;;;;;;4377271;32;20064;-72
2023/06/18 03:24:26;;;;;;;18.90;10.90;;;;;;;;;;4377338;32;20466;-71
2023/06/18 03:26:51;;;;;;;13.90;11.00;;;;;;;;;;4377457;32;20043;-71
2023/06/18 03:29:17;;;;;;;19.35;10.70;;;;;;;;;;4362095;32;20035;-70
2023/06/18 03:31:42;;;;;;;19.90;11.43;;;;;;;;;;4377126;32;20057;-70
2023/06/18 03:34:08;;;;;;;13.93;10.88;;;;;;;;;;4375702;32;20581;-71
2023/06/18 03:36:39;;;;;;;13.40;10.20;;;;;;;;;;4362474;32;20027;-72
2023/06/18 03:39:11;;;;;;;14.63;11.30;;;;;;;;;;4362463;32;20440;-72
2023/06/18 03:41:36;;;;;;;16.80;11.57;;;;;;;;;;4363073;32;20065;-72
2023/06/18 03:44:02;;;;;;;13.02;9.77;;;;;;;;;;4361895;32;20380;-72
2023/06/18 03:46:27;;;;;;;14.57;10.57;;;;;;;;;;4361638;32;20372;-71
2023/06/18 03:48:52;;;;;;;15.27;11.07;;;;;;;;;;4363328;32;20054;-72
2023/06/18 03:51:18;;;;;;;13.82;11.80;;;;;;;;;;4363857;32;20169;-71
2023/06/18 03:53:43;;;;;;;18.62;12.02;;;;;;;;;;4376669;32;20038;-71
2023/06/18 03:56:08;;;;;;;14.30;11.30;;;;;;;;;;4375546;32;20097;-71
2023/06/18 03:58:33;;;;;;;15.53;11.33;;;;;;;;;;4361531;32;20400;-71
2023/06/18 04:00:58;;;;;;;16.42;11.05;;;;;;;;;;4371576;32;20159;-72
2023/06/18 04:03:24;;;;;;;16.75;12.00;;;;;;;;;;4361511;32;20032;-72
2023/06/18 04:05:49;;;;;;;13.88;10.10;;;;;;;;;;4361675;32;20081;-73
2023/06/18 04:08:15;;;;;;;17.20;12.52;;;;;;;;;;4358835;32;20031;-71
2023/06/18 04:10:40;;;;;;;14.80;11.35;;;;;;;;;;4358753;32;20034;-71
2023/06/18 04:13:06;;;;;;;15.02;11.68;;;;;;;;;;4360709;32;20027;-71
2023/06/18 04:15:31;;;;;;;18.80;12.98;;;;;;;;;;4348082;32;20039;-71
2023/06/18 04:17:57;;;;;;;17.70;11.68;;;;;;;;;;4348061;32;20057;-71
2023/06/18 04:20:22;;;;;;;21.55;11.80;;;;;;;;;;4360557;32;20065;-70
2023/06/18 04:22:47;;;;;;;22.40;11.90;;;;;;;;;;4362255;32;20078;-71
2023/06/18 04:25:12;;;;;;;18.80;11.73;;;;;;;;;;4365511;32;20205;-71
2023/06/18 04:27:38;;;;;;;16.75;13.35;;;;;;;;;;4369223;32;20039;-71
2023/06/18 04:30:04;;;;;;;18.45;12.43;;;;;;;;;;4361315;32;20030;-70
2023/06/18 04:32:29;;;;;;;21.20;12.55;;;;;;;;;;4359507;32;20523;-71
2023/06/18 04:34:55;;;;;;;15.25;12.13;;;;;;;;;;4358727;32;20663;-72
2023/06/18 04:37:20;;;;;;;22.15;13.10;;;;;;;;;;4360714;32;20108;-71
2023/06/18 04:39:46;;;;;;;17.60;12.20;;;;;;;;;;4373573;32;20023;-73
2023/06/18 04:42:12;;;;;;;17.27;11.90;;;;;;;;;;4360154;32;20558;-71
2023/06/18 04:44:38;;;;;;;17.77;13.52;;;;;;;;;;4359888;32;20073;-72
2023/06/18 04:47:03;;;;;;;16.02;11.48;;;;;;;;;;4373538;32;20457;-72
2023/06/18 04:49:29;;;;;;;16.27;12.07;;;;;;;;;;4373412;32;20161;-72
2023/06/18 04:51:54;;;;;;;17.08;12.07;;;;;;;;;;4373980;32;20103;-72
2023/06/18 04:54:20;;;;;;;18.23;12.07;;;;;;;;;;4361589;32;20096;-71
2023/06/18 04:56:45;;;;;;;15.83;11.30;;;;;;;;;;4372788;32;20125;-71
2023/06/18 04:59:10;;;;;;;13.27;10.77;;;;;;;;;;4360223;32;20139;-73
2023/06/18 05:01:35;;;;;;;14.80;12.55;;;;;;;;;;4374746;32;20028;-72
2023/06/18 05:04:00;;;;;;;13.93;12.30;;;;;;;;;;4375162;32;20133;-72
2023/06/18 05:06:26;;;;;;;18.07;12.47;;;;;;;;;;4363057;32;20105;-72
2023/06/18 05:08:51;;;;;;;15.95;12.10;;;;;;;;;;4360820;32;20119;-71
2023/06/18 05:11:17;;;;;;;21.52;12.80;;;;;;;;;;4374119;32;20061;-71
2023/06/18 05:13:42;;;;;;;20.50;12.93;;;;;;;;;;4374108;32;20077;-71
2023/06/18 05:16:07;;;;;;;20.27;12.33;;;;;;;;;;4362490;32;20031;-71
2023/06/18 05:18:35;;;;;;;17.87;12.98;;;;;;;;;;4361831;32;20169;-70
2023/06/18 05:21:00;;;;;;;19.60;13.57;;;;;;;;;;4375705;32;20175;-71
2023/06/18 05:23:25;;;;;;;17.37;13.52;;;;;;;;;;4375423;32;20338;-72
2023/06/18 05:25:50;;;;;;;16.75;12.32;;;;;;;;;;4374101;32;20478;-71
2023/06/18 05:28:15;;;;;;;17.67;13.88;;;;;;;;;;4375289;32;20313;-71
2023/06/18 05:30:42;;;;;;;19.55;14.02;;;;;;;;;;4374224;32;20409;-71
2023/06/18 05:33:07;;;;;;;22.60;13.35;;;;;;;;;;4374276;32;20069;-72
2023/06/18 05:35:33;;;;;;;16.57;11.83;;;;;;;;;;4375786;32;20035;-71
2023/06/18 05:37:58;;;;;;;18.50;13.77;;;;;;;;;;4361142;32;20528;-72
2023/06/18 05:40:23;;;;;;;18.05;13.38;;;;;;;;;;4373633;32;20065;-72
2023/06/18 05:42:48;;;;;;;16.55;12.82;;;;;;;;;;4361859;32;20628;-71
2023/06/18 05:45:14;;;;;;;14.35;11.15;;;;;;;;;;4375862;32;20420;-71
2023/06/18 05:47:39;;;;;;;17.17;12.20;;;;;;;;;;4375133;32;20078;-72
2023/06/18 05:50:04;;;;;;;19.03;13.30;;;;;;;;;;4373874;32;20069;-73
2023/06/18 05:52:29;;;;;;;17.90;12.43;;;;;;;;;;4366178;32;20244;-72
2023/06/18 05:54:55;;;;;;;15.97;12.50;;;;;;;;;;4359657;32;20105;-71
2023/06/18 05:57:20;;;;;;;15.80;13.10;;;;;;;;;;4373050;32;20170;-72
2023/06/18 05:59:47;;;;;;;18.67;14.07;;;;;;;;;;4359651;32;20544;-71
2023/06/18 06:02:12;;;;;;;14.23;12.13;;;;;;;;;;4371372;32;20525;-71
2023/06/18 06:04:37;;;;;;;16.20;13.93;;;;;;;;;;4375682;32;20062;-73
2023/06/18 06:07:03;;;;;;;18.37;14.37;;;;;;;;;;4361934;32;20117;-71
2023/06/18 06:09:28;;;;;;;21.00;14.73;;;;;;;;;;4374190;32;20135;-71
2023/06/18 06:11:53;;;;;;;23.03;14.70;;;;;;;;;;4360836;32;20173;-69
2023/06/18 06:14:18;;;;;;;18.90;15.23;;;;;;;;;;4374277;32;20563;-70
2023/06/18 06:16:43;;;;;;;19.53;13.93;;;;;;;;;;4374131;32;20157;-70
2023/06/18 06:19:08;;;;;;;20.27;15.13;;;;;;;;;;4376253;32;20634;-70
2023/06/18 06:21:34;;;;;;;17.03;15.13;;;;;;;;;;4378253;32;20127;-71
2023/06/18 06:23:59;;;;;;;23.87;16.40;;;;;;;;;;4377424;32;20205;-70
2023/06/18 06:26:24;;;;;;;19.20;14.18;;;;;;;;;;4363476;32;20027;-71
2023/06/18 06:28:49;;;;;;;21.62;14.65;;;;;;;;;;4363086;32;20067;-70
2023/06/18 06:31:14;;;;;;;19.92;14.43;;;;;;;;;;4376750;32;20027;-71
2023/06/18 06:33:40;;;;;;;19.50;14.75;;;;;;;;;;4376535;32;20042;-71
2023/06/18 06:36:05;;;;;;;21.50;14.70;;;;;;;;;;4360601;32;20045;-71
2023/06/18 06:38:30;;;;;;;22.92;15.18;;;;;;;;;;4362683;32;20162;-70
2023/06/18 06:40:55;;;;;;;21.03;15.33;;;;;;;;;;4362555;32;20032;-71
2023/06/18 06:43:20;;;;;;;22.70;15.63;;;;;;;;;;4371924;32;20131;-71
2023/06/18 06:45:46;;;;;;;24.77;15.70;;;;;;;;;;4376228;32;20180;-70
2023/06/18 06:48:11;;;;;;;22.37;14.80;;;;;;;;;;4377490;32;20030;-70
2023/06/18 06:50:36;;;;;;;22.17;14.98;;;;;;;;;;4360574;32;20515;-72
2023/06/18 06:53:01;;;;;;;20.15;14.10;;;;;;;;;;4375938;32;20413;-70
2023/06/18 06:55:26;;;;;;;19.48;15.55;;;;;;;;;;4362666;32;20039;-71
2023/06/18 06:57:52;;;;;;;16.23;13.83;;;;;;;;;;4364030;32;20047;-71
2023/06/18 07:00:17;;;;;;;22.73;13.73;;;;;;;;;;4362871;32;20540;-70
2023/06/18 07:02:42;;;;;;;21.15;13.27;;;;;;;;;;4377083;32;20126;-70
2023/06/18 07:05:09;;;;;;;16.20;12.70;;;;;;;;;;4376936;32;20049;-70
2023/06/18 07:07:35;;;;;;;20.00;12.37;;;;;;;;;;4378265;32;20039;-70
2023/06/18 07:10:00;;;;;;;16.62;12.23;;;;;;;;;;4377315;32;20070;-70
2023/06/18 07:12:25;;;;;;;17.53;12.70;;;;;;;;;;4377896;32;20023;-72
2023/06/18 07:14:50;;;;;;;19.80;11.77;;;;;;;;;;4375868;32;20130;-72
2023/06/18 07:17:16;;;;;;;15.30;12.40;;;;;;;;;;4377558;32;20151;-72
2023/06/18 07:19:41;;;;;;;16.45;11.18;;;;;;;;;;4376939;32;20556;-71
2023/06/18 07:22:06;;;;;;;15.70;13.13;;;;;;;;;;4375827;32;20487;-70
2023/06/18 07:24:31;;;;;;;15.63;11.88;;;;;;;;;;4374294;32;20175;-70
2023/06/18 07:26:56;;;;;;;17.70;12.60;;;;;;;;;;4360928;32;20140;-70
2023/06/18 07:29:22;;;;;;;19.90;12.47;;;;;;;;;;4375502;32;20555;-71
2023/06/18 07:31:47;;;;;;;14.90;11.27;;;;;;;;;;4361351;32;20253;-71
2023/06/18 07:34:12;;;;;;;13.20;11.38;;;;;;;;;;4363074;32;20149;-70
2023/06/18 07:36:37;;;;;;;13.70;10.70;;;;;;;;;;4372824;32;20098;-70
2023/06/18 07:39:02;;;;;;;13.73;11.27;;;;;;;;;;4376935;32;20529;-71
2023/06/18 07:41:27;;;;;;;14.43;10.45;;;;;;;;;;4363504;32;20177;-71
2023/06/18 07:43:53;;;;;;;17.50;11.20;;;;;;;;;;4376088;32;20403;-71
2023/06/18 07:46:19;;;;;;;13.45;10.45;;;;;;;;;;4376914;32;20039;-70
2023/06/18 07:48:44;;;;;;;15.77;11.70;;;;;;;;;;4376443;32;20062;-70
2023/06/18 07:51:10;;;;;;;13.85;10.48;;;;;;;;;;4377052;32;20035;-71
2023/06/18 07:53:35;;;;;;;13.93;10.93;;;;;;;;;;4376946;32;20058;-71
2023/06/18 07:56:00;;;;;;;14.83;11.10;;;;;;;;;;4376201;32;20066;-71
2023/06/18 07:58:26;;;;;;;14.40;10.93;;;;;;;;;;4374904;32;20139;-72
2023/06/18 08:00:51;;;;;;;20.65;10.80;;;;;;;;;;4362992;32;20039;-71
2023/06/18 08:03:16;;;;;;;15.57;12.13;;;;;;;;;;4361570;32;20431;-70
2023/06/18 08:05:41;;;;;;;14.73;12.07;;;;;;;;;;4377156;32;20067;-70
2023/06/18 08:08:06;;;;;;;16.90;11.63;;;;;;;;;;4376208;32;20026;-71
2023/06/18 08:10:32;;;;;;;18.30;12.50;;;;;;;;;;4362426;32;20030;-72
2023/06/18 08:12:57;;;;;;;17.27;11.95;;;;;;;;;;4376567;32;20197;-70
2023/06/18 08:15:22;;;;;;;17.35;11.50;;;;;;;;;;4376935;32;20031;-71
2023/06/18 08:17:47;;;;;;;14.35;11.45;;;;;;;;;;4376361;32;20040;-71
2023/06/18 08:20:12;;;;;;;14.18;12.10;;;;;;;;;;4362048;32;20038;-71
2023/06/18 08:22:38;;;;;;;17.57;11.70;;;;;;;;;;4361086;32;20027;-72
2023/06/18 08:25:03;;;;;;;14.90;13.03;;;;;;;;;;4361628;32;20151;-72
2023/06/18 08:27:28;;;;;;;15.32;11.93;;;;;;;;;;4362660;32;20240;-72
2023/06/18 08:29:53;;;;;;;17.73;13.13;;;;;;;;;;4361820;32;20393;-71
2023/06/18 08:32:18;;;;;;;16.67;12.60;;;;;;;;;;4376007;32;20192;-72
2023/06/18 08:34:45;;;;;;;19.83;13.17;;;;;;;;;;4368522;32;20165;-72
2023/06/18 08:37:11;;;;;;;16.90;12.37;;;;;;;;;;4375357;32;20185;-70
2023/06/18 08:39:36;;;;;;;19.62;11.98;;;;;;;;;;4367538;32;20047;-71
2023/06/18 08:42:02;;;;;;;17.73;12.73;;;;;;;;;;4366099;32;20039;-71
2023/06/18 08:44:28;;;;;;;15.23;11.85;;;;;;;;;;4374576;32;20030;-71
2023/06/18 08:46:56;;;;;;;20.00;12.35;;;;;;;;;;4375502;32;20363;-71
2023/06/18 08:49:23;;;;;;;13.73;11.82;;;;;;;;;;4374642;32;20030;-70
2023/06/18 08:51:53;;;;;;;14.60;11.68;;;;;;;;;;4360799;32;20058;-73
2023/06/18 08:54:18;;;;;;;12.98;10.70;;;;;;;;;;4375973;32;20088;-71
2023/06/18 08:56:45;;;;;;;13.20;11.25;;;;;;;;;;4360566;32;20046;-70
2023/06/18 08:59:11;;;;;;;12.18;10.40;;;;;;;;;;4357086;32;20446;-71
2023/06/18 09:01:37;;;;;;;15.18;10.80;;;;;;;;;;4359585;32;20088;-72
2023/06/18 09:04:02;;;;;;;12.75;11.43;;;;;;;;;;4373049;32;20455;-71
2023/06/18 09:06:28;;;;;;;13.40;10.35;;;;;;;;;;4374142;32;20392;-70
2023/06/18 09:08:54;;;;;;;12.37;10.82;;;;;;;;;;4374697;32;20313;-71
2023/06/18 09:11:19;;;;;;;13.75;11.02;;;;;;;;;;4375429;32;20412;-72
2023/06/18 09:13:45;;;;;;;12.63;11.32;;;;;;;;;;4360178;32;20057;-72
2023/06/18 09:16:10;;;;;;;12.10;9.98;;;;;;;;;;4374155;32;20394;-72
2023/06/18 09:18:36;;;;;;;14.40;11.48;;;;;;;;;;4360181;32;20084;-70
2023/06/18 09:21:03;;;;;;;17.92;11.95;;;;;;;;;;4374434;32;20102;-70
2023/06/18 09:23:28;;;;;;;14.95;11.15;;;;;;;;;;4373700;32;20077;-71
2023/06/18 09:25:54;;;;;;;13.05;11.15;;;;;;;;;;4360514;32;20028;-72
2023/06/18 09:28:20;;;;;;;14.85;11.27;;;;;;;;;;4373792;32;20057;-71
2023/06/18 09:30:52;;;;;;;15.68;12.88;;;;;;;;;;4375539;32;20026;-70
2023/06/18 09:33:33;;;;;;;12.10;10.65;;;;;;;;;;4372356;32;20051;-72
2023/06/18 09:35:59;;;;;;;17.70;11.82;;;;;;;;;;4372676;32;20329;-72
2023/06/18 09:38:31;;;;;;;15.07;11.73;;;;;;;;;;4360001;32;20047;-72
2023/06/18 09:40:56;;;;;;;15.13;12.20;;;;;;;;;;4358443;32;20440;-71
2023/06/18 09:43:22;;;;;;;13.95;11.05;;;;;;;;;;4374000;32;20058;-70
2023/06/18 09:45:47;;;;;;;14.98;11.95;;;;;;;;;;4373890;32;20031;-71
2023/06/18 09:48:12;;;;;;;15.93;12.70;;;;;;;;;;4373308;32;20446;-72
2023/06/18 09:50:37;;;;;;;16.37;13.03;;;;;;;;;;4361317;32;20135;-72
2023/06/18 09:53:02;;;;;;;15.47;12.53;;;;;;;;;;4374783;32;20445;-72
2023/06/18 09:55:29;;;;;;;16.60;13.47;;;;;;;;;;4376832;32;20127;-71
2023/06/18 09:57:54;;;;;;;17.62;12.82;;;;;;;;;;4376181;32;20448;-70
2023/06/18 10:00:20;;;;;;;15.55;12.65;;;;;;;;;;4364624;32;20059;-73
2023/06/18 10:02:45;;;;;;;18.02;12.80;;;;;;;;;;4362803;32;20053;-72
2023/06/18 10:05:10;;;;;;;21.35;13.73;;;;;;;;;;4376646;32;20026;-71
2023/06/18 10:07:39;;;;;;;14.55;11.77;;;;;;;;;;4377434;32;20035;-71
2023/06/18 10:10:05;;;;;;;15.50;12.32;;;;;;;;;;4360094;32;20039;-71
2023/06/18 10:12:30;;;;;;;18.15;13.55;;;;;;;;;;4362512;32;20093;-71
2023/06/18 10:14:56;;;;;;;15.82;13.27;;;;;;;;;;4371558;32;20027;-72
2023/06/18 10:17:23;;;;;;;17.05;13.30;;;;;;;;;;4378117;32;20093;-72
2023/06/18 10:20:01;;;;;;;24.73;15.05;;;;;;;;;;4376218;32;20035;-72
2023/06/18 10:22:28;;;;;;;20.70;14.27;;;;;;;;;;4361056;32;20466;-71
2023/06/18 10:25:01;;;;;;;19.30;13.23;;;;;;;;;;4377709;32;20428;-71
2023/06/18 10:27:27;;;;;;;17.02;14.98;;;;;;;;;;4376463;32;20111;-71
2023/06/18 10:29:52;;;;;;;20.55;15.43;;;;;;;;;;4371459;32;20038;-73
2023/06/18 10:32:17;;;;;;;22.50;14.68;;;;;;;;;;4374879;32;20098;-70
2023/06/18 10:34:43;;;;;;;15.32;13.82;;;;;;;;;;4366049;32;20081;-70
2023/06/18 10:37:09;;;;;;;18.33;13.65;;;;;;;;;;4370761;32;20039;-71
2023/06/18 10:39:35;;;;;;;15.82;12.15;;;;;;;;;;4373815;32;20436;-71
2023/06/18 10:42:10;;;;;;;18.23;13.93;;;;;;;;;;4361896;32;20090;-71
2023/06/18 10:44:47;;;;;;;14.43;12.60;;;;;;;;;;4377668;32;20057;-71
2023/06/18 10:47:19;;;;;;;16.10;12.45;;;;;;;;;;4360499;32;20034;-72
2023/06/18 10:49:59;;;;;;;17.00;12.35;;;;;;;;;;4376934;32;20058;-71
2023/06/18 10:52:24;;;;;;;14.02;12.63;;;;;;;;;;4376412;32;20023;-71
2023/06/18 10:54:52;;;;;;;17.70;11.90;;;;;;;;;;4375371;32;20088;-72
2023/06/18 10:57:18;;;;;;;13.82;11.73;;;;;;;;;;4363784;32;20038;-73
2023/06/18 10:59:44;;;;;;;18.42;11.32;;;;;;;;;;4375987;32;20093;-73
2023/06/18 11:02:10;;;;;;;12.63;11.30;;;;;;;;;;4376216;32;20586;-71
2023/06/18 11:04:36;;;;;;;14.75;11.82;;;;;;;;;;4362310;32;20077;-73
2023/06/18 11:07:10;;;;;;;12.05;10.85;;;;;;;;;;4361727;32;20100;-74
2023/06/18 11:09:50;;;;;;;13.35;11.82;;;;;;;;;;4377479;32;20051;-71
2023/06/18 11:12:23;;;;;;;17.75;11.98;;;;;;;;;;4375667;32;20027;-71
2023/06/18 11:15:07;;;;;;;12.68;11.05;;;;;;;;;;4376026;32;20153;-71
2023/06/18 11:17:33;;;;;;;13.82;11.32;;;;;;;;;;4374034;32;20065;-72
2023/06/18 11:19:58;;;;;;;10.75;9.65;;;;;;;;;;4375712;32;20036;-71
2023/06/18 11:22:24;;;;;;;11.00;9.30;;;;;;;;;;4375703;32;20454;-70
2023/06/18 11:24:50;;;;;;;12.30;8.52;;;;;;;;;;4375870;32;20066;-72
2023/06/18 11:27:16;;;;;;;10.40;8.30;;;;;;;;;;4376796;32;20054;-72
2023/06/18 11:29:42;;;;;;;8.45;7.47;;;;;;;;;;4369222;32;20115;-73
2023/06/18 11:32:13;;;;;;;13.40;7.87;;;;;;;;;;4372804;32;20043;-73
2023/06/18 11:34:45;;;;;;;10.80;8.43;;;;;;;;;;4360798;32;20082;-72
2023/06/18 11:37:10;;;;;;;9.93;6.75;;;;;;;;;;4363245;32;20078;-70
2023/06/18 11:39:35;;;;;;;8.50;7.70;;;;;;;;;;4363476;32;20109;-72
2023/06/18 11:42:10;;;;;;;7.12;6.07;;;;;;;;;;4374476;32;20325;-73
2023/06/18 11:44:44;;;;;;;12.77;8.87;;;;;;;;;;4362083;32;20034;-72
2023/06/18 11:47:09;;;;;;;10.45;7.62;;;;;;;;;;4376370;32;20404;-72
2023/06/18 11:49:34;;;;;;;12.45;7.62;;;;;;;;;;4361147;32;20027;-73
2023/06/18 11:51:59;;;;;;;7.70;6.90;;;;;;;;;;4362994;32;20128;-72
2023/06/18 11:54:25;;;;;;;9.97;7.30;;;;;;;;;;4375873;32;20115;-73
2023/06/18 11:56:53;;;;;;;11.52;7.25;;;;;;;;;;4363379;32;20158;-72
2023/06/18 11:59:19;;;;;;;9.32;7.75;;;;;;;;;;4376252;32;20031;-72
2023/06/18 12:01:45;;;;;;;10.57;7.20;;;;;;;;;;4375506;32;20027;-73
2023/06/18 12:04:10;;;;;;;9.38;7.57;;;;;;;;;;4372394;32;20066;-72
2023/06/18 12:06:36;;;;;;;9.57;7.97;;;;;;;;;;4361289;32;20027;-72
2023/06/18 12:09:06;;;;;;;10.27;7.20;;;;;;;;;;4361160;32;20140;-72
2023/06/18 12:11:35;;;;;;;7.72;6.93;;;;;;;;;;4360568;32;20035;-72
2023/06/18 12:14:02;;;;;;;18.08;8.05;;;;;;;;;;4360755;32;20112;-73
2023/06/18 12:16:29;;;;;;;11.38;7.65;;;;;;;;;;4359742;32;20086;-72
2023/06/18 12:18:58;;;;;;;9.68;8.07;;;;;;;;;;4364153;32;20078;-71
2023/06/18 12:21:23;;;;;;;8.23;7.20;;;;;;;;;;4376054;32;20415;-72
2023/06/18 12:23:49;;;;;;;11.98;6.53;;;;;;;;;;4375138;32;20085;-72
2023/06/18 12:26:14;;;;;;;11.32;6.65;;;;;;;;;;4374774;32;20031;-72
2023/06/18 12:28:39;;;;;;;7.40;6.70;;;;;;;;;;4373099;32;20066;-72
2023/06/18 12:31:09;;;;;;;7.28;6.03;;;;;;;;;;4372471;32;20062;-73
2023/06/18 12:33:38;;;;;;;9.50;6.82;;;;;;;;;;4361093;32;20040;-71
2023/06/18 12:36:04;;;;;;;10.07;7.28;;;;;;;;;;4359450;32;20121;-72
2023/06/18 12:38:38;;;;;;;10.80;7.25;;;;;;;;;;4359436;32;20361;-72
2023/06/18 12:41:04;;;;;;;12.30;8.40;;;;;;;;;;4361653;32;20058;-72
2023/06/18 12:43:29;;;;;;;8.88;7.75;;;;;;;;;;4376503;32;20081;-72
2023/06/18 12:45:55;;;;;;;9.43;8.20;;;;;;;;;;4362313;32;20038;-73
2023/06/18 12:48:21;;;;;;;9.75;7.55;;;;;;;;;;4376269;32;20388;-71
2023/06/18 12:50:47;;;;;;;8.85;7.40;;;;;;;;;;4374870;32;20026;-72
2023/06/18 12:53:24;;;;;;;9.80;7.68;;;;;;;;;;4362280;32;20482;-72
2023/06/18 12:55:50;;;;;;;10.23;8.20;;;;;;;;;;4376294;32;20035;-73
2023/06/18 12:58:15;;;;;;;10.27;7.68;;;;;;;;;;4375776;32;20046;-73
2023/06/18 13:00:41;;;;;;;11.20;8.52;;;;;;;;;;4361005;32;20081;-72
2023/06/18 13:03:07;;;;;;;12.80;8.88;;;;;;;;;;4374803;32;20027;-73
2023/06/18 13:05:33;;;;;;;10.20;7.90;;;;;;;;;;4372451;32;20105;-71
2023/06/18 13:07:58;;;;;;;13.48;8.30;;;;;;;;;;4360268;32;20081;-73
2023/06/18 13:10:24;;;;;;;15.32;8.00;;;;;;;;;;4365251;32;20053;-72
2023/06/18 13:12:49;;;;;;;12.95;7.25;;;;;;;;;;4375828;32;20478;-71
2023/06/18 13:15:14;;;;;;;9.15;7.05;;;;;;;;;;4373933;32;20068;-72
2023/06/18 13:17:40;;;;;;;7.25;6.55;;;;;;;;;;4374082;32;20074;-73
2023/06/18 13:20:08;;;;;;;14.45;7.78;;;;;;;;;;4373403;32;20057;-72
2023/06/18 13:22:33;;;;;;;13.45;6.82;;;;;;;;;;4374528;32;20024;-72
2023/06/18 13:24:59;;;;;;;12.55;7.85;;;;;;;;;;4374972;32;20057;-73
2023/06/18 13:27:25;;;;;;;7.95;7.15;;;;;;;;;;4373612;32;20031;-72
2023/06/18 13:29:52;;;;;;;8.98;6.93;;;;;;;;;;4374728;32;20104;-73
2023/06/18 13:32:17;;;;;;;13.05;7.45;;;;;;;;;;4374974;32;20051;-72
2023/06/18 13:34:43;;;;;;;9.27;7.13;;;;;;;;;;4374377;32;20383;-72
2023/06/18 13:37:08;;;;;;;9.60;7.07;;;;;;;;;;4374726;32;20118;-72
2023/06/18 13:39:33;;;;;;;8.27;6.27;;;;;;;;;;4375819;32;20147;-72
2023/06/18 13:41:59;;;;;;;11.32;7.00;;;;;;;;;;4375312;32;20162;-72
2023/06/18 13:44:24;;;;;;;6.37;5.78;;;;;;;;;;4374591;32;20034;-74
2023/06/18 13:46:49;;;;;;;9.13;6.10;;;;;;;;;;4372344;32;20534;-72
2023/06/18 13:49:15;;;;;;;7.50;6.53;;;;;;;;;;4371322;32;20161;-71
2023/06/18 13:51:40;;;;;;;9.68;5.85;;;;;;;;;;4353654;32;20178;-72
2023/06/18 13:54:05;;;;;;;9.03;6.30;;;;;;;;;;4358563;32;20035;-72
2023/06/18 13:56:30;;;;;;;8.70;5.80;;;;;;;;;;4359570;32;20126;-71
2023/06/18 13:58:55;;;;;;;6.90;6.20;;;;;;;;;;4371963;32;20548;-72
2023/06/18 14:01:21;;;;;;;7.28;6.50;;;;;;;;;;4368470;32;20139;-72
2023/06/18 14:03:46;;;;;;;11.90;5.97;;;;;;;;;;4357982;33;20035;-72
2023/06/18 14:06:11;;;;;;;10.82;6.03;;;;;;;;;;4360298;33;20035;-73
2023/06/18 14:08:40;;;;;;;10.32;5.35;;;;;;;;;;4358447;32;20084;-71
2023/06/18 14:11:05;;;;;;;10.50;6.30;;;;;;;;;;4360160;32;20059;-73
2023/06/18 14:13:31;;;;;;;7.10;5.78;;;;;;;;;;4359084;33;20053;-72
2023/06/18 14:15:56;;;;;;;18.23;15.40;;;;;;;;;;4360243;33;20039;-72
2023/06/18 14:18:22;;;;;;;7.30;5.30;;;;;;;;;;4358359;32;20189;-71
2023/06/18 14:20:47;;;;;;;8.07;6.28;;;;;;;;;;4359042;32;20032;-71